Terminal Aerodrome Forecast
Issued by NWS

Home | Current Version | Previous Version | Text Only | Print | Product List | Glossary On
Versions: 1 2 3 4 5 6 7 8 9 10 11 12 13 14 15 16 17 18 19 20
000
FTUS43 KPAH 162112 AAB
TAFCGI
TAF AMD
KCGI 162112Z 1621/1718 VRB03KT P6SM SCT030 BKN045
     FM162300 VRB02KT P6SM FEW045
     FM170900 00000KT 2SM BR SCT002
     FM171500 13004KT P6SM FEW025=

USA.gov is the U.S. government's official web portal to all federal, state and local government web resources and services.